logo
Search for airport 
image banner adimage banner adimage banner ad
image banner ad

LI-AQ01 - Aviosuperficie Celano

Located in Celano, Italy

ICAO - , IATA -

Data provided by Airmate  

General information

Coordinates: N42°3'6" E13°33'26"
Elevation is 2247 feet MSL.
 
View others Airports in Abruzzi

Operational data

Special qualification required
Current time UTC:
Current local time:
Weather at : LIRH - Frosinone ( 50 km )
METAR: LIRH 250555Z 00000KT 9999 FEW030 16/15 Q1012 RMK FEW MON CIME INC NC VIS MIN 9999 WIND THR16 00000KT BLU
TAF: TAF LIRH 250500Z 2506/2515 13003KT CAVOK
View NOTAMs / SUP AIP / TFR affecting this airport [VIEW]
Communications frequencies: [VIEW]

Runways:

RWY identifierQFULength (ft)Width (ft)SurfaceLDA (ft)
08262498ASPH
26262498ASPH

Airport contact information

Address: Celano Italy

Satellite view of LI-AQ01